Pagrindinis puslapis
METAR-TAF:

METAR-TAF

Oro uostai :

Montego Bėjus, Jamaika

platuma: 18-30N, ilguma: 077-55W, Aukštis: 1 m

Dabartinis oras

Ataskaita buvo paskelbta 46 minutes, ne 01:00 UTC
Vėjas 3 kt iš Pietryčių
Temperatūra 27°C
Drėgmė 79%
Slėgis 1014 hPa
Matomumas 10 km arba daugiau
Mažai debesys ne aukštis 2000 ft
Mažai debesys ne aukštis 2200 ft, Liūtiniai kamuoliniai debesys.
Perkūnija kaimynystėje

METAR: MKJS 250100Z 14003KT 9999 VCTS FEW020 FEW022CB 27/23 Q1014

Laikas: 20:46 (01:46 UTC)

Prognozė

Ataskaita buvo paskelbta 2 valandos ir 31 minutes, ne 23:15 UTC
Prognozė galioja nuo 25 metu 00 UTC su 25 metu 24 UTC
Vėjas 5 kt iš Pietryčių
Matomumas 10 km arba daugiau
Mažai debesys ne aukštis 2200 ft
Tapsmas
nuo 25 metu 14 UTC su 25 metu 16 UTC
Vėjas 13 kt iš Šiaurės Rytų
Laikinai
nuo 25 metu 18 UTC su 25 metu 24 UTC
Su prošvaistėmis ne aukštis 1800 ft, Liūtiniai kamuoliniai debesys.
perkūnija, lietus

TAF: MKJS 242315Z 2500/2524 14005KT 9999 FEW022 BECMG 2514/2516 05013KT TEMPO 2518/2524 TSRA BKN018CB

Orai ataskaitas ir orų prognozės (METAR, TAF).

turimą stotys yra geltonos ir raudonos taškus žemėlapyje.

Perkelti pele per norėdami pamatyti stoties vardą.

Tada spustelėkite, norėdami matyti oro stebėjimo ir prognozės.

Norėdami pakeisti žemėlapį: spustelėkite ant žalios mygtukų su juodo kryžiaus žemyn,; žalią mygtuką su brūkšneliu, jei norite nutolinti; arba žalių rodyklių gretimoms žemėlapius.


METAR-TAF: